sensor_id;sensor_type;location;lat;lon;timestamp;P1;durP1;ratioP1;P2;durP2;ratioP2
11305;SDS011;5708;50.660;6.778;2023-07-31T00:00:58;6.60;;;2.22;;
11305;SDS011;5708;50.660;6.778;2023-07-31T00:03:24;9.13;;;2.50;;
11305;SDS011;5708;50.660;6.778;2023-07-31T00:05:49;5.22;;;2.42;;
11305;SDS011;5708;50.660;6.778;2023-07-31T00:08:14;6.90;;;2.80;;
11305;SDS011;5708;50.660;6.778;2023-07-31T00:10:40;4.43;;;2.08;;
11305;SDS011;5708;50.660;6.778;2023-07-31T00:13:05;5.28;;;2.10;;
11305;SDS011;5708;50.660;6.778;2023-07-31T00:15:30;7.35;;;2.33;;
11305;SDS011;5708;50.660;6.778;2023-07-31T00:17:56;5.80;;;2.22;;
11305;SDS011;5708;50.660;6.778;2023-07-31T00:20:21;5.82;;;2.25;;
11305;SDS011;5708;50.660;6.778;2023-07-31T00:22:46;4.75;;;1.98;;
11305;SDS011;5708;50.660;6.778;2023-07-31T00:25:12;5.30;;;2.05;;
11305;SDS011;5708;50.660;6.778;2023-07-31T00:27:37;5.03;;;2.30;;
11305;SDS011;5708;50.660;6.778;2023-07-31T00:30:03;5.47;;;2.05;;
11305;SDS011;5708;50.660;6.778;2023-07-31T00:32:28;5.63;;;2.28;;
11305;SDS011;5708;50.660;6.778;2023-07-31T00:34:54;5.40;;;2.35;;
11305;SDS011;5708;50.660;6.778;2023-07-31T00:37:19;4.10;;;1.77;;
11305;SDS011;5708;50.660;6.778;2023-07-31T00:39:44;4.00;;;1.73;;
11305;SDS011;5708;50.660;6.778;2023-07-31T00:42:10;5.63;;;1.98;;
11305;SDS011;5708;50.660;6.778;2023-07-31T00:44:35;5.82;;;2.10;;
11305;SDS011;5708;50.660;6.778;2023-07-31T00:47:00;6.70;;;1.95;;
11305;SDS011;5708;50.660;6.778;2023-07-31T00:49:26;4.95;;;2.20;;
11305;SDS011;5708;50.660;6.778;2023-07-31T00:51:52;6.95;;;2.50;;
11305;SDS011;5708;50.660;6.778;2023-07-31T00:54:17;6.00;;;2.30;;
11305;SDS011;5708;50.660;6.778;2023-07-31T00:56:44;5.65;;;2.17;;
11305;SDS011;5708;50.660;6.778;2023-07-31T00:59:10;4.18;;;2.28;;
11305;SDS011;5708;50.660;6.778;2023-07-31T01:01:36;5.40;;;2.28;;
11305;SDS011;5708;50.660;6.778;2023-07-31T01:04:01;7.55;;;2.17;;
11305;SDS011;5708;50.660;6.778;2023-07-31T01:11:46;5.50;;;2.10;;
11305;SDS011;5708;50.660;6.778;2023-07-31T01:14:15;6.65;;;2.58;;
11305;SDS011;5708;50.660;6.778;2023-07-31T01:16:40;9.10;;;2.80;;
11305;SDS011;5708;50.660;6.778;2023-07-31T01:19:06;7.05;;;2.50;;
11305;SDS011;5708;50.660;6.778;2023-07-31T01:27:12;5.88;;;2.50;;
11305;SDS011;5708;50.660;6.778;2023-07-31T01:29:53;6.05;;;2.35;;
11305;SDS011;5708;50.660;6.778;2023-07-31T01:32:22;6.97;;;2.72;;
11305;SDS011;5708;50.660;6.778;2023-07-31T01:34:48;6.47;;;2.47;;
11305;SDS011;5708;50.660;6.778;2023-07-31T01:37:13;7.20;;;2.53;;
11305;SDS011;5708;50.660;6.778;2023-07-31T01:39:39;8.02;;;2.92;;
11305;SDS011;5708;50.660;6.778;2023-07-31T01:42:04;8.10;;;2.90;;
11305;SDS011;5708;50.660;6.778;2023-07-31T01:44:30;5.93;;;2.90;;
11305;SDS011;5708;50.660;6.778;2023-07-31T01:46:55;9.15;;;3.45;;
11305;SDS011;5708;50.660;6.778;2023-07-31T01:49:21;6.40;;;2.67;;
11305;SDS011;5708;50.660;6.778;2023-07-31T01:51:49;9.90;;;3.20;;
11305;SDS011;5708;50.660;6.778;2023-07-31T01:54:15;6.70;;;3.03;;
11305;SDS011;5708;50.660;6.778;2023-07-31T01:56:40;9.65;;;3.55;;
11305;SDS011;5708;50.660;6.778;2023-07-31T01:59:05;6.78;;;2.90;;
11305;SDS011;5708;50.660;6.778;2023-07-31T02:01:31;7.57;;;3.13;;
11305;SDS011;5708;50.660;6.778;2023-07-31T02:03:56;8.98;;;2.90;;
11305;SDS011;5708;50.660;6.778;2023-07-31T02:06:22;5.15;;;2.50;;
11305;SDS011;5708;50.660;6.778;2023-07-31T02:08:48;6.88;;;2.88;;
11305;SDS011;5708;50.660;6.778;2023-07-31T02:11:14;6.13;;;2.60;;
11305;SDS011;5708;50.660;6.778;2023-07-31T02:13:39;7.13;;;2.67;;
11305;SDS011;5708;50.660;6.778;2023-07-31T02:16:05;7.00;;;2.97;;
11305;SDS011;5708;50.660;6.778;2023-07-31T02:18:30;9.75;;;2.97;;
11305;SDS011;5708;50.660;6.778;2023-07-31T02:20:55;8.02;;;2.65;;
11305;SDS011;5708;50.660;6.778;2023-07-31T02:23:21;8.95;;;3.05;;
11305;SDS011;5708;50.660;6.778;2023-07-31T02:25:46;8.93;;;3.05;;
11305;SDS011;5708;50.660;6.778;2023-07-31T02:28:12;8.38;;;3.17;;
11305;SDS011;5708;50.660;6.778;2023-07-31T02:30:37;7.20;;;3.20;;
11305;SDS011;5708;50.660;6.778;2023-07-31T02:33:03;8.57;;;3.22;;
11305;SDS011;5708;50.660;6.778;2023-07-31T02:35:29;9.32;;;3.05;;
11305;SDS011;5708;50.660;6.778;2023-07-31T02:37:55;6.38;;;2.88;;
11305;SDS011;5708;50.660;6.778;2023-07-31T02:40:20;9.00;;;3.30;;
11305;SDS011;5708;50.660;6.778;2023-07-31T02:42:45;8.80;;;3.15;;
11305;SDS011;5708;50.660;6.778;2023-07-31T02:45:11;8.48;;;3.08;;
11305;SDS011;5708;50.660;6.778;2023-07-31T02:47:36;5.93;;;2.63;;
11305;SDS011;5708;50.660;6.778;2023-07-31T02:50:02;7.85;;;3.45;;
11305;SDS011;5708;50.660;6.778;2023-07-31T02:52:28;9.38;;;3.03;;
11305;SDS011;5708;50.660;6.778;2023-07-31T02:54:53;8.65;;;3.50;;
11305;SDS011;5708;50.660;6.778;2023-07-31T02:57:19;7.43;;;2.80;;
11305;SDS011;5708;50.660;6.778;2023-07-31T02:59:44;9.07;;;3.00;;
11305;SDS011;5708;50.660;6.778;2023-07-31T03:02:09;7.95;;;2.92;;
11305;SDS011;5708;50.660;6.778;2023-07-31T03:04:36;9.35;;;2.97;;
11305;SDS011;5708;50.660;6.778;2023-07-31T03:07:04;9.32;;;3.00;;
11305;SDS011;5708;50.660;6.778;2023-07-31T03:09:30;6.72;;;2.83;;
11305;SDS011;5708;50.660;6.778;2023-07-31T03:11:56;8.13;;;2.83;;
11305;SDS011;5708;50.660;6.778;2023-07-31T03:14:21;9.15;;;2.97;;
11305;SDS011;5708;50.660;6.778;2023-07-31T03:16:46;6.32;;;2.80;;
11305;SDS011;5708;50.660;6.778;2023-07-31T03:19:12;8.00;;;3.20;;
11305;SDS011;5708;50.660;6.778;2023-07-31T03:21:37;9.13;;;3.00;;
11305;SDS011;5708;50.660;6.778;2023-07-31T03:24:03;6.32;;;2.78;;
11305;SDS011;5708;50.660;6.778;2023-07-31T03:26:30;8.48;;;2.90;;
11305;SDS011;5708;50.660;6.778;2023-07-31T03:28:56;12.25;;;3.00;;
11305;SDS011;5708;50.660;6.778;2023-07-31T03:31:23;7.18;;;2.80;;
11305;SDS011;5708;50.660;6.778;2023-07-31T03:33:48;9.90;;;3.28;;
11305;SDS011;5708;50.660;6.778;2023-07-31T03:36:13;8.05;;;3.17;;
11305;SDS011;5708;50.660;6.778;2023-07-31T03:38:39;7.75;;;3.25;;
11305;SDS011;5708;50.660;6.778;2023-07-31T03:41:04;6.25;;;3.03;;
11305;SDS011;5708;50.660;6.778;2023-07-31T03:43:31;8.60;;;3.20;;
11305;SDS011;5708;50.660;6.778;2023-07-31T03:45:58;8.00;;;3.13;;
11305;SDS011;5708;50.660;6.778;2023-07-31T03:48:24;8.07;;;3.35;;
11305;SDS011;5708;50.660;6.778;2023-07-31T03:50:50;7.30;;;3.40;;
11305;SDS011;5708;50.660;6.778;2023-07-31T03:53:15;7.97;;;3.17;;
11305;SDS011;5708;50.660;6.778;2023-07-31T03:55:40;7.45;;;3.58;;
11305;SDS011;5708;50.660;6.778;2023-07-31T03:58:06;6.32;;;3.28;;
11305;SDS011;5708;50.660;6.778;2023-07-31T04:00:31;8.30;;;3.85;;
11305;SDS011;5708;50.660;6.778;2023-07-31T04:02:56;8.98;;;3.38;;
11305;SDS011;5708;50.660;6.778;2023-07-31T04:05:22;6.23;;;3.13;;
11305;SDS011;5708;50.660;6.778;2023-07-31T04:07:47;8.05;;;3.47;;
11305;SDS011;5708;50.660;6.778;2023-07-31T04:10:12;6.43;;;3.40;;
11305;SDS011;5708;50.660;6.778;2023-07-31T04:12:38;8.15;;;3.70;;
11305;SDS011;5708;50.660;6.778;2023-07-31T04:15:03;9.20;;;3.30;;
11305;SDS011;5708;50.660;6.778;2023-07-31T04:17:29;7.75;;;3.60;;
11305;SDS011;5708;50.660;6.778;2023-07-31T04:19:54;7.97;;;3.38;;
11305;SDS011;5708;50.660;6.778;2023-07-31T04:22:20;7.88;;;3.50;;
11305;SDS011;5708;50.660;6.778;2023-07-31T04:24:45;9.63;;;3.53;;
11305;SDS011;5708;50.660;6.778;2023-07-31T04:27:11;10.18;;;3.72;;
11305;SDS011;5708;50.660;6.778;2023-07-31T04:29:36;9.18;;;3.17;;
11305;SDS011;5708;50.660;6.778;2023-07-31T04:32:01;9.38;;;3.50;;
11305;SDS011;5708;50.660;6.778;2023-07-31T04:34:27;5.75;;;3.03;;
11305;SDS011;5708;50.660;6.778;2023-07-31T04:36:52;6.82;;;3.35;;
11305;SDS011;5708;50.660;6.778;2023-07-31T04:39:17;8.50;;;3.25;;
11305;SDS011;5708;50.660;6.778;2023-07-31T04:41:43;8.02;;;3.35;;
11305;SDS011;5708;50.660;6.778;2023-07-31T04:44:08;7.93;;;3.30;;
11305;SDS011;5708;50.660;6.778;2023-07-31T04:46:36;7.32;;;3.38;;
11305;SDS011;5708;50.660;6.778;2023-07-31T04:49:02;9.30;;;2.97;;
11305;SDS011;5708;50.660;6.778;2023-07-31T04:51:28;8.18;;;3.60;;
11305;SDS011;5708;50.660;6.778;2023-07-31T04:53:53;5.78;;;2.90;;
11305;SDS011;5708;50.660;6.778;2023-07-31T04:56:18;8.20;;;3.60;;
11305;SDS011;5708;50.660;6.778;2023-07-31T04:58:44;6.97;;;3.60;;
11305;SDS011;5708;50.660;6.778;2023-07-31T05:01:09;7.00;;;3.20;;
11305;SDS011;5708;50.660;6.778;2023-07-31T05:03:34;7.30;;;3.55;;
11305;SDS011;5708;50.660;6.778;2023-07-31T05:06:00;7.20;;;2.88;;
11305;SDS011;5708;50.660;6.778;2023-07-31T05:08:25;6.18;;;2.70;;
11305;SDS011;5708;50.660;6.778;2023-07-31T05:10:51;8.45;;;3.10;;
11305;SDS011;5708;50.660;6.778;2023-07-31T05:13:16;8.88;;;3.53;;
11305;SDS011;5708;50.660;6.778;2023-07-31T05:15:42;8.13;;;3.42;;
11305;SDS011;5708;50.660;6.778;2023-07-31T05:18:07;9.43;;;3.10;;
11305;SDS011;5708;50.660;6.778;2023-07-31T05:20:32;7.72;;;3.15;;
11305;SDS011;5708;50.660;6.778;2023-07-31T05:22:58;7.32;;;3.30;;
11305;SDS011;5708;50.660;6.778;2023-07-31T05:25:23;7.47;;;3.00;;
11305;SDS011;5708;50.660;6.778;2023-07-31T05:27:48;9.77;;;2.78;;
11305;SDS011;5708;50.660;6.778;2023-07-31T05:30:14;6.57;;;3.28;;
11305;SDS011;5708;50.660;6.778;2023-07-31T05:32:39;7.20;;;2.92;;
11305;SDS011;5708;50.660;6.778;2023-07-31T05:35:05;7.53;;;3.30;;
11305;SDS011;5708;50.660;6.778;2023-07-31T05:37:30;7.20;;;3.10;;
11305;SDS011;5708;50.660;6.778;2023-07-31T05:39:56;8.75;;;2.95;;
11305;SDS011;5708;50.660;6.778;2023-07-31T05:42:21;5.43;;;2.88;;
11305;SDS011;5708;50.660;6.778;2023-07-31T05:44:47;9.38;;;3.25;;
11305;SDS011;5708;50.660;6.778;2023-07-31T05:47:12;6.18;;;2.60;;
11305;SDS011;5708;50.660;6.778;2023-07-31T05:49:38;5.72;;;2.67;;
11305;SDS011;5708;50.660;6.778;2023-07-31T05:52:03;8.23;;;3.17;;
11305;SDS011;5708;50.660;6.778;2023-07-31T05:54:29;7.80;;;2.75;;
11305;SDS011;5708;50.660;6.778;2023-07-31T05:56:54;8.23;;;3.15;;
11305;SDS011;5708;50.660;6.778;2023-07-31T05:59:20;8.07;;;2.97;;
11305;SDS011;5708;50.660;6.778;2023-07-31T06:01:45;8.30;;;3.55;;
11305;SDS011;5708;50.660;6.778;2023-07-31T06:04:10;7.20;;;3.08;;
11305;SDS011;5708;50.660;6.778;2023-07-31T06:06:36;9.45;;;3.72;;
11305;SDS011;5708;50.660;6.778;2023-07-31T06:09:01;8.35;;;3.50;;
11305;SDS011;5708;50.660;6.778;2023-07-31T06:11:28;8.65;;;3.55;;
11305;SDS011;5708;50.660;6.778;2023-07-31T06:13:53;12.13;;;3.45;;
11305;SDS011;5708;50.660;6.778;2023-07-31T06:16:19;8.55;;;3.60;;
11305;SDS011;5708;50.660;6.778;2023-07-31T06:18:46;7.95;;;3.40;;
11305;SDS011;5708;50.660;6.778;2023-07-31T06:21:11;8.07;;;3.92;;
11305;SDS011;5708;50.660;6.778;2023-07-31T06:23:37;9.57;;;3.55;;
11305;SDS011;5708;50.660;6.778;2023-07-31T06:26:02;7.97;;;3.28;;
11305;SDS011;5708;50.660;6.778;2023-07-31T06:28:28;7.78;;;3.20;;
11305;SDS011;5708;50.660;6.778;2023-07-31T06:31:00;8.00;;;3.40;;
11305;SDS011;5708;50.660;6.778;2023-07-31T06:33:26;10.02;;;3.28;;
11305;SDS011;5708;50.660;6.778;2023-07-31T06:35:51;8.70;;;3.10;;
11305;SDS011;5708;50.660;6.778;2023-07-31T06:38:19;6.85;;;3.10;;
11305;SDS011;5708;50.660;6.778;2023-07-31T06:40:47;7.95;;;3.30;;
11305;SDS011;5708;50.660;6.778;2023-07-31T06:43:14;7.07;;;3.00;;
11305;SDS011;5708;50.660;6.778;2023-07-31T06:45:39;6.10;;;3.00;;
11305;SDS011;5708;50.660;6.778;2023-07-31T06:48:04;8.32;;;4.00;;
11305;SDS011;5708;50.660;6.778;2023-07-31T06:50:30;7.75;;;3.28;;
11305;SDS011;5708;50.660;6.778;2023-07-31T06:52:56;7.93;;;3.33;;
11305;SDS011;5708;50.660;6.778;2023-07-31T06:55:22;8.45;;;3.08;;
11305;SDS011;5708;50.660;6.778;2023-07-31T06:57:49;7.55;;;3.38;;
11305;SDS011;5708;50.660;6.778;2023-07-31T07:00:16;7.82;;;3.35;;
11305;SDS011;5708;50.660;6.778;2023-07-31T07:02:42;6.78;;;3.17;;
11305;SDS011;5708;50.660;6.778;2023-07-31T07:05:07;7.70;;;3.58;;
11305;SDS011;5708;50.660;6.778;2023-07-31T07:07:33;7.53;;;3.20;;
11305;SDS011;5708;50.660;6.778;2023-07-31T07:09:59;7.50;;;3.22;;
11305;SDS011;5708;50.660;6.778;2023-07-31T07:12:25;8.70;;;3.13;;
11305;SDS011;5708;50.660;6.778;2023-07-31T07:14:50;10.50;;;3.70;;
11305;SDS011;5708;50.660;6.778;2023-07-31T07:17:18;7.22;;;3.17;;
11305;SDS011;5708;50.660;6.778;2023-07-31T07:19:47;8.23;;;3.03;;
11305;SDS011;5708;50.660;6.778;2023-07-31T07:22:13;8.82;;;3.08;;
11305;SDS011;5708;50.660;6.778;2023-07-31T07:24:38;7.95;;;3.42;;
11305;SDS011;5708;50.660;6.778;2023-07-31T07:27:03;8.77;;;3.00;;
11305;SDS011;5708;50.660;6.778;2023-07-31T07:29:29;8.50;;;3.15;;
11305;SDS011;5708;50.660;6.778;2023-07-31T07:31:54;8.70;;;3.05;;
11305;SDS011;5708;50.660;6.778;2023-07-31T07:34:22;7.68;;;3.05;;
11305;SDS011;5708;50.660;6.778;2023-07-31T07:36:49;6.20;;;3.03;;
11305;SDS011;5708;50.660;6.778;2023-07-31T07:39:14;9.60;;;2.90;;
11305;SDS011;5708;50.660;6.778;2023-07-31T07:41:40;7.20;;;2.80;;
11305;SDS011;5708;50.660;6.778;2023-07-31T07:44:05;8.68;;;3.13;;
11305;SDS011;5708;50.660;6.778;2023-07-31T07:46:31;6.25;;;2.88;;
11305;SDS011;5708;50.660;6.778;2023-07-31T07:48:56;6.53;;;2.83;;
11305;SDS011;5708;50.660;6.778;2023-07-31T07:51:22;5.75;;;2.40;;
11305;SDS011;5708;50.660;6.778;2023-07-31T07:53:47;8.18;;;2.60;;
11305;SDS011;5708;50.660;6.778;2023-07-31T07:56:12;6.57;;;2.58;;
11305;SDS011;5708;50.660;6.778;2023-07-31T07:58:38;5.75;;;2.60;;
11305;SDS011;5708;50.660;6.778;2023-07-31T08:01:03;5.68;;;2.40;;
11305;SDS011;5708;50.660;6.778;2023-07-31T08:03:28;6.82;;;2.30;;
11305;SDS011;5708;50.660;6.778;2023-07-31T08:05:57;5.85;;;2.40;;
11305;SDS011;5708;50.660;6.778;2023-07-31T08:08:26;7.20;;;2.42;;
11305;SDS011;5708;50.660;6.778;2023-07-31T08:10:52;5.28;;;2.10;;
11305;SDS011;5708;50.660;6.778;2023-07-31T08:13:17;8.70;;;1.90;;
11305;SDS011;5708;50.660;6.778;2023-07-31T08:15:43;6.53;;;2.30;;
11305;SDS011;5708;50.660;6.778;2023-07-31T08:18:09;3.90;;;1.88;;
11305;SDS011;5708;50.660;6.778;2023-07-31T08:20:34;5.82;;;1.85;;
11305;SDS011;5708;50.660;6.778;2023-07-31T08:23:00;4.72;;;2.15;;
11305;SDS011;5708;50.660;6.778;2023-07-31T08:25:26;5.63;;;1.70;;
11305;SDS011;5708;50.660;6.778;2023-07-31T08:27:52;3.70;;;1.67;;
11305;SDS011;5708;50.660;6.778;2023-07-31T08:30:18;5.25;;;1.70;;
11305;SDS011;5708;50.660;6.778;2023-07-31T08:32:43;5.85;;;1.80;;
11305;SDS011;5708;50.660;6.778;2023-07-31T08:35:09;6.82;;;1.83;;
11305;SDS011;5708;50.660;6.778;2023-07-31T08:37:34;5.10;;;1.73;;
11305;SDS011;5708;50.660;6.778;2023-07-31T08:40:03;3.95;;;1.83;;
11305;SDS011;5708;50.660;6.778;2023-07-31T08:42:28;4.68;;;1.85;;
11305;SDS011;5708;50.660;6.778;2023-07-31T08:44:54;7.22;;;1.80;;
11305;SDS011;5708;50.660;6.778;2023-07-31T08:47:21;5.13;;;1.73;;
11305;SDS011;5708;50.660;6.778;2023-07-31T08:49:47;3.17;;;1.50;;
11305;SDS011;5708;50.660;6.778;2023-07-31T08:52:13;2.53;;;1.50;;
11305;SDS011;5708;50.660;6.778;2023-07-31T08:54:38;5.72;;;1.85;;
11305;SDS011;5708;50.660;6.778;2023-07-31T08:57:04;6.30;;;1.90;;
11305;SDS011;5708;50.660;6.778;2023-07-31T08:59:31;3.30;;;1.40;;
11305;SDS011;5708;50.660;6.778;2023-07-31T09:01:57;4.63;;;1.70;;
11305;SDS011;5708;50.660;6.778;2023-07-31T09:04:29;7.20;;;2.13;;
11305;SDS011;5708;50.660;6.778;2023-07-31T09:06:57;5.47;;;1.85;;
11305;SDS011;5708;50.660;6.778;2023-07-31T09:09:25;4.78;;;1.95;;
11305;SDS011;5708;50.660;6.778;2023-07-31T09:11:51;4.50;;;1.90;;
11305;SDS011;5708;50.660;6.778;2023-07-31T09:14:17;7.95;;;2.40;;
11305;SDS011;5708;50.660;6.778;2023-07-31T09:16:55;6.78;;;1.85;;
11305;SDS011;5708;50.660;6.778;2023-07-31T09:19:40;4.43;;;2.25;;
11305;SDS011;5708;50.660;6.778;2023-07-31T09:22:05;4.65;;;1.80;;
11305;SDS011;5708;50.660;6.778;2023-07-31T09:24:32;6.47;;;2.28;;
11305;SDS011;5708;50.660;6.778;2023-07-31T09:26:59;5.72;;;1.92;;
11305;SDS011;5708;50.660;6.778;2023-07-31T09:29:26;6.53;;;2.15;;
11305;SDS011;5708;50.660;6.778;2023-07-31T09:31:52;3.28;;;1.70;;
11305;SDS011;5708;50.660;6.778;2023-07-31T09:34:18;7.80;;;2.10;;
11305;SDS011;5708;50.660;6.778;2023-07-31T09:36:48;5.40;;;1.90;;
11305;SDS011;5708;50.660;6.778;2023-07-31T09:39:15;6.88;;;2.20;;
11305;SDS011;5708;50.660;6.778;2023-07-31T09:41:47;4.45;;;1.92;;
11305;SDS011;5708;50.660;6.778;2023-07-31T09:44:18;3.55;;;1.92;;
11305;SDS011;5708;50.660;6.778;2023-07-31T09:46:44;4.15;;;2.00;;
11305;SDS011;5708;50.660;6.778;2023-07-31T09:49:10;5.45;;;2.17;;
11305;SDS011;5708;50.660;6.778;2023-07-31T09:51:36;5.65;;;2.13;;
11305;SDS011;5708;50.660;6.778;2023-07-31T09:54:09;6.65;;;2.30;;
11305;SDS011;5708;50.660;6.778;2023-07-31T09:56:41;4.32;;;1.90;;
11305;SDS011;5708;50.660;6.778;2023-07-31T09:59:08;5.88;;;2.15;;
11305;SDS011;5708;50.660;6.778;2023-07-31T10:01:42;3.15;;;1.70;;
11305;SDS011;5708;50.660;6.778;2023-07-31T10:04:09;5.55;;;2.05;;
11305;SDS011;5708;50.660;6.778;2023-07-31T10:06:35;4.63;;;2.15;;
11305;SDS011;5708;50.660;6.778;2023-07-31T10:09:02;3.88;;;1.88;;
11305;SDS011;5708;50.660;6.778;2023-07-31T10:11:28;4.13;;;1.65;;
11305;SDS011;5708;50.660;6.778;2023-07-31T10:13:54;4.85;;;1.90;;
11305;SDS011;5708;50.660;6.778;2023-07-31T10:16:20;6.03;;;2.10;;
11305;SDS011;5708;50.660;6.778;2023-07-31T10:18:47;4.35;;;1.98;;
11305;SDS011;5708;50.660;6.778;2023-07-31T10:21:12;6.55;;;2.08;;
11305;SDS011;5708;50.660;6.778;2023-07-31T10:23:39;4.75;;;2.10;;
11305;SDS011;5708;50.660;6.778;2023-07-31T10:26:05;4.78;;;2.03;;
11305;SDS011;5708;50.660;6.778;2023-07-31T10:28:32;4.32;;;1.70;;
11305;SDS011;5708;50.660;6.778;2023-07-31T10:30:58;4.50;;;1.70;;
11305;SDS011;5708;50.660;6.778;2023-07-31T10:33:24;3.22;;;1.38;;
11305;SDS011;5708;50.660;6.778;2023-07-31T10:35:49;4.70;;;1.70;;
11305;SDS011;5708;50.660;6.778;2023-07-31T10:38:18;2.90;;;1.40;;
11305;SDS011;5708;50.660;6.778;2023-07-31T10:40:43;6.13;;;1.92;;
11305;SDS011;5708;50.660;6.778;2023-07-31T10:43:10;2.70;;;1.33;;
11305;SDS011;5708;50.660;6.778;2023-07-31T10:45:50;2.55;;;1.30;;
11305;SDS011;5708;50.660;6.778;2023-07-31T10:48:15;3.80;;;1.23;;
11305;SDS011;5708;50.660;6.778;2023-07-31T10:50:51;4.65;;;1.48;;
11305;SDS011;5708;50.660;6.778;2023-07-31T10:53:24;2.60;;;1.23;;
11305;SDS011;5708;50.660;6.778;2023-07-31T10:55:51;2.08;;;1.38;;
11305;SDS011;5708;50.660;6.778;2023-07-31T10:58:18;4.38;;;1.70;;
11305;SDS011;5708;50.660;6.778;2023-07-31T11:00:44;5.18;;;2.13;;
11305;SDS011;5708;50.660;6.778;2023-07-31T11:13:30;2.30;;;1.00;;
11305;SDS011;5708;50.660;6.778;2023-07-31T11:15:56;4.45;;;1.30;;
11305;SDS011;5708;50.660;6.778;2023-07-31T11:18:22;2.25;;;1.00;;
11305;SDS011;5708;50.660;6.778;2023-07-31T11:20:47;3.03;;;1.00;;
11305;SDS011;5708;50.660;6.778;2023-07-31T11:23:15;3.13;;;1.10;;
11305;SDS011;5708;50.660;6.778;2023-07-31T11:25:41;1.88;;;1.00;;
11305;SDS011;5708;50.660;6.778;2023-07-31T11:28:08;1.85;;;0.80;;
11305;SDS011;5708;50.660;6.778;2023-07-31T11:30:35;2.70;;;0.90;;
11305;SDS011;5708;50.660;6.778;2023-07-31T11:33:01;1.92;;;0.75;;
11305;SDS011;5708;50.660;6.778;2023-07-31T11:35:31;3.22;;;1.02;;
11305;SDS011;5708;50.660;6.778;2023-07-31T11:38:01;1.25;;;0.80;;
11305;SDS011;5708;50.660;6.778;2023-07-31T11:40:27;2.63;;;0.90;;
11305;SDS011;5708;50.660;6.778;2023-07-31T11:42:58;1.52;;;0.98;;
11305;SDS011;5708;50.660;6.778;2023-07-31T11:45:29;3.10;;;1.23;;
11305;SDS011;5708;50.660;6.778;2023-07-31T11:47:55;2.58;;;1.20;;
11305;SDS011;5708;50.660;6.778;2023-07-31T11:50:22;3.13;;;1.50;;
11305;SDS011;5708;50.660;6.778;2023-07-31T11:52:50;3.35;;;1.50;;
11305;SDS011;5708;50.660;6.778;2023-07-31T11:55:17;3.45;;;1.48;;
11305;SDS011;5708;50.660;6.778;2023-07-31T11:57:46;4.22;;;1.88;;
11305;SDS011;5708;50.660;6.778;2023-07-31T12:00:12;3.10;;;1.42;;
11305;SDS011;5708;50.660;6.778;2023-07-31T12:02:39;5.57;;;1.73;;
11305;SDS011;5708;50.660;6.778;2023-07-31T12:05:05;4.22;;;2.20;;
11305;SDS011;5708;50.660;6.778;2023-07-31T12:10:10;4.25;;;2.40;;
11305;SDS011;5708;50.660;6.778;2023-07-31T12:12:36;5.90;;;2.40;;
11305;SDS011;5708;50.660;6.778;2023-07-31T12:15:02;5.72;;;2.50;;
11305;SDS011;5708;50.660;6.778;2023-07-31T12:17:27;5.13;;;2.58;;
11305;SDS011;5708;50.660;6.778;2023-07-31T12:19:53;6.00;;;2.42;;
11305;SDS011;5708;50.660;6.778;2023-07-31T12:22:19;6.80;;;2.55;;
11305;SDS011;5708;50.660;6.778;2023-07-31T12:24:46;6.30;;;2.85;;
11305;SDS011;5708;50.660;6.778;2023-07-31T12:27:11;6.70;;;3.08;;
11305;SDS011;5708;50.660;6.778;2023-07-31T12:29:38;5.95;;;3.00;;
11305;SDS011;5708;50.660;6.778;2023-07-31T12:32:04;6.63;;;3.17;;
11305;SDS011;5708;50.660;6.778;2023-07-31T12:34:43;7.28;;;2.70;;
11305;SDS011;5708;50.660;6.778;2023-07-31T12:37:08;8.50;;;2.97;;
11305;SDS011;5708;50.660;6.778;2023-07-31T12:39:34;6.40;;;2.80;;
11305;SDS011;5708;50.660;6.778;2023-07-31T12:41:59;5.88;;;3.13;;
11305;SDS011;5708;50.660;6.778;2023-07-31T12:44:24;5.95;;;3.38;;
11305;SDS011;5708;50.660;6.778;2023-07-31T12:46:50;7.15;;;2.97;;
11305;SDS011;5708;50.660;6.778;2023-07-31T12:49:15;6.50;;;2.70;;
11305;SDS011;5708;50.660;6.778;2023-07-31T12:51:41;6.78;;;2.75;;
11305;SDS011;5708;50.660;6.778;2023-07-31T12:54:06;5.47;;;2.53;;
11305;SDS011;5708;50.660;6.778;2023-07-31T12:56:32;6.43;;;2.40;;
11305;SDS011;5708;50.660;6.778;2023-07-31T12:58:57;6.05;;;2.75;;
11305;SDS011;5708;50.660;6.778;2023-07-31T13:01:23;5.22;;;2.65;;
11305;SDS011;5708;50.660;6.778;2023-07-31T13:03:48;4.32;;;2.30;;
11305;SDS011;5708;50.660;6.778;2023-07-31T13:06:13;5.40;;;2.75;;
11305;SDS011;5708;50.660;6.778;2023-07-31T13:08:39;4.72;;;2.67;;
11305;SDS011;5708;50.660;6.778;2023-07-31T13:11:04;4.80;;;2.22;;
11305;SDS011;5708;50.660;6.778;2023-07-31T13:13:30;3.90;;;2.00;;
11305;SDS011;5708;50.660;6.778;2023-07-31T13:15:56;3.30;;;1.77;;
11305;SDS011;5708;50.660;6.778;2023-07-31T13:18:21;4.13;;;1.95;;
11305;SDS011;5708;50.660;6.778;2023-07-31T13:20:47;4.72;;;1.65;;
11305;SDS011;5708;50.660;6.778;2023-07-31T13:23:12;3.35;;;1.67;;
11305;SDS011;5708;50.660;6.778;2023-07-31T13:25:37;3.55;;;1.70;;
11305;SDS011;5708;50.660;6.778;2023-07-31T13:28:03;4.10;;;1.83;;
11305;SDS011;5708;50.660;6.778;2023-07-31T13:30:28;4.38;;;1.60;;
11305;SDS011;5708;50.660;6.778;2023-07-31T13:32:53;3.30;;;1.90;;
11305;SDS011;5708;50.660;6.778;2023-07-31T13:35:19;3.60;;;1.80;;
11305;SDS011;5708;50.660;6.778;2023-07-31T13:37:44;3.83;;;2.00;;
11305;SDS011;5708;50.660;6.778;2023-07-31T13:40:10;4.63;;;1.70;;
11305;SDS011;5708;50.660;6.778;2023-07-31T13:42:35;5.88;;;2.10;;
11305;SDS011;5708;50.660;6.778;2023-07-31T13:45:01;5.15;;;2.17;;
11305;SDS011;5708;50.660;6.778;2023-07-31T13:47:26;3.63;;;2.05;;
11305;SDS011;5708;50.660;6.778;2023-07-31T13:49:51;3.83;;;2.20;;
11305;SDS011;5708;50.660;6.778;2023-07-31T13:52:17;3.30;;;1.60;;
11305;SDS011;5708;50.660;6.778;2023-07-31T13:54:42;3.13;;;1.88;;
11305;SDS011;5708;50.660;6.778;2023-07-31T13:57:08;4.57;;;1.75;;
11305;SDS011;5708;50.660;6.778;2023-07-31T13:59:33;4.13;;;1.83;;
11305;SDS011;5708;50.660;6.778;2023-07-31T14:01:59;4.10;;;1.70;;
11305;SDS011;5708;50.660;6.778;2023-07-31T14:04:24;3.38;;;1.73;;
11305;SDS011;5708;50.660;6.778;2023-07-31T14:06:49;4.60;;;1.77;;
11305;SDS011;5708;50.660;6.778;2023-07-31T14:09:15;2.22;;;1.50;;
11305;SDS011;5708;50.660;6.778;2023-07-31T14:11:42;4.35;;;1.48;;
11305;SDS011;5708;50.660;6.778;2023-07-31T14:14:08;3.25;;;1.40;;
11305;SDS011;5708;50.660;6.778;2023-07-31T14:16:34;5.40;;;1.50;;
11305;SDS011;5708;50.660;6.778;2023-07-31T14:18:59;3.35;;;1.40;;
11305;SDS011;5708;50.660;6.778;2023-07-31T14:21:25;2.95;;;1.67;;
11305;SDS011;5708;50.660;6.778;2023-07-31T14:23:51;2.70;;;1.50;;
11305;SDS011;5708;50.660;6.778;2023-07-31T14:26:16;3.72;;;1.67;;
11305;SDS011;5708;50.660;6.778;2023-07-31T14:28:41;3.78;;;1.90;;
11305;SDS011;5708;50.660;6.778;2023-07-31T14:31:07;2.85;;;1.75;;
11305;SDS011;5708;50.660;6.778;2023-07-31T14:33:32;5.25;;;2.00;;
11305;SDS011;5708;50.660;6.778;2023-07-31T14:35:58;2.92;;;1.88;;
11305;SDS011;5708;50.660;6.778;2023-07-31T14:38:23;2.95;;;1.80;;
11305;SDS011;5708;50.660;6.778;2023-07-31T14:40:49;4.53;;;1.90;;
11305;SDS011;5708;50.660;6.778;2023-07-31T14:43:14;3.90;;;2.10;;
11305;SDS011;5708;50.660;6.778;2023-07-31T14:45:40;4.07;;;2.03;;
11305;SDS011;5708;50.660;6.778;2023-07-31T14:48:05;4.28;;;2.10;;
11305;SDS011;5708;50.660;6.778;2023-07-31T14:50:31;5.88;;;2.33;;
11305;SDS011;5708;50.660;6.778;2023-07-31T14:52:56;3.63;;;1.95;;
11305;SDS011;5708;50.660;6.778;2023-07-31T14:55:21;4.95;;;1.90;;
11305;SDS011;5708;50.660;6.778;2023-07-31T14:57:47;3.42;;;2.00;;
11305;SDS011;5708;50.660;6.778;2023-07-31T15:00:13;4.28;;;1.98;;
11305;SDS011;5708;50.660;6.778;2023-07-31T15:02:39;3.47;;;2.00;;
11305;SDS011;5708;50.660;6.778;2023-07-31T15:05:05;3.20;;;1.90;;
11305;SDS011;5708;50.660;6.778;2023-07-31T15:07:30;3.58;;;2.00;;
11305;SDS011;5708;50.660;6.778;2023-07-31T15:09:56;4.28;;;1.85;;
11305;SDS011;5708;50.660;6.778;2023-07-31T15:12:21;3.22;;;2.00;;
11305;SDS011;5708;50.660;6.778;2023-07-31T15:14:48;3.60;;;2.25;;
11305;SDS011;5708;50.660;6.778;2023-07-31T15:17:13;3.92;;;2.10;;